createdAt,value
2017-10-14T00:02:16.136Z,20.23
2017-10-14T00:04:44.735Z,20.25
2017-10-14T00:07:12.321Z,20.77
2017-10-14T00:09:40.672Z,20.60
2017-10-14T00:12:08.242Z,20.13
2017-10-14T00:14:35.837Z,27.50
2017-10-14T00:17:03.460Z,37.07
2017-10-14T00:19:31.092Z,25.30
2017-10-14T00:21:58.668Z,31.95
2017-10-14T00:24:26.276Z,20.60
2017-10-14T00:26:54.089Z,20.95
2017-10-14T00:29:21.684Z,20.03
2017-10-14T00:31:50.020Z,20.58
2017-10-14T00:34:17.811Z,21.50
2017-10-14T00:36:46.589Z,20.62
2017-10-14T00:39:14.161Z,23.13
2017-10-14T00:41:41.752Z,20.20
2017-10-14T00:44:09.328Z,19.53
2017-10-14T00:46:36.916Z,20.53
2017-10-14T00:49:04.480Z,20.90
2017-10-14T00:51:32.077Z,19.90
2017-10-14T00:54:00.733Z,20.70
2017-10-14T00:56:28.309Z,20.67
2017-10-14T00:58:56.085Z,20.87
2017-10-14T01:01:23.661Z,21.83
2017-10-14T01:03:52.000Z,20.65
2017-10-14T01:06:19.592Z,19.83
2017-10-14T01:08:47.952Z,20.40
2017-10-14T01:11:15.536Z,21.63
2017-10-14T01:13:44.852Z,22.37
2017-10-14T01:16:12.418Z,22.60
2017-10-14T01:18:40.311Z,24.80
2017-10-14T01:21:07.920Z,24.03
2017-10-14T01:23:36.302Z,22.13
2017-10-14T01:26:04.690Z,21.17
2017-10-14T01:28:33.064Z,21.67
2017-10-14T01:31:01.416Z,21.03
2017-10-14T01:33:29.087Z,22.70
2017-10-14T01:35:56.652Z,23.10
2017-10-14T01:38:24.228Z,23.80
2017-10-14T01:40:52.596Z,21.47
2017-10-14T01:43:20.164Z,22.73
2017-10-14T01:45:48.637Z,22.20
2017-10-14T01:48:16.295Z,19.17
2017-10-14T01:50:44.864Z,22.50
2017-10-14T01:53:12.432Z,20.90
2017-10-14T01:55:40.097Z,19.37
2017-10-14T01:58:09.168Z,19.50
2017-10-14T02:00:36.776Z,19.00
2017-10-14T02:03:05.113Z,20.37
2017-10-14T02:05:32.856Z,20.07
2017-10-14T02:08:00.433Z,20.48
2017-10-14T02:10:28.019Z,20.40
2017-10-14T02:12:55.612Z,20.40
2017-10-14T02:15:23.993Z,20.90
2017-10-14T02:17:52.353Z,19.75
2017-10-14T02:20:19.928Z,20.03
2017-10-14T02:22:48.289Z,20.20
2017-10-14T02:25:15.907Z,19.40
2017-10-14T02:27:45.769Z,20.73
2017-10-14T02:30:13.345Z,17.43
2017-10-14T02:32:41.709Z,17.83
2017-10-14T02:35:10.048Z,20.63
2017-10-14T02:37:37.660Z,21.23
2017-10-14T02:40:06.000Z,19.27
2017-10-14T02:42:33.581Z,18.17
2017-10-14T02:45:01.185Z,20.17
2017-10-14T02:47:28.760Z,22.77
2017-10-14T02:49:56.355Z,20.80
2017-10-14T02:52:23.924Z,22.30
2017-10-14T02:54:51.517Z,22.20
2017-10-14T02:57:19.086Z,20.40
2017-10-14T02:59:46.712Z,21.57
2017-10-14T03:02:14.275Z,24.40
2017-10-14T03:04:41.884Z,23.37
2017-10-14T03:07:09.460Z,22.23
2017-10-14T03:09:37.053Z,20.87
2017-10-14T03:12:04.715Z,19.10
2017-10-14T03:14:32.325Z,22.57
2017-10-14T03:16:59.900Z,21.50
2017-10-14T03:19:27.467Z,22.67
2017-10-14T03:21:55.056Z,22.33
2017-10-14T03:24:22.821Z,23.70
2017-10-14T03:26:50.489Z,21.23
2017-10-14T03:29:18.060Z,22.20
2017-10-14T03:31:46.016Z,22.08
2017-10-14T03:34:13.593Z,18.90
2017-10-14T03:36:42.876Z,18.93
2017-10-14T03:39:11.207Z,22.03
2017-10-14T03:41:39.123Z,23.13
2017-10-14T03:44:06.780Z,20.90
2017-10-14T03:46:34.353Z,19.80
2017-10-14T03:49:01.949Z,20.20
2017-10-14T03:51:29.572Z,18.93
2017-10-14T03:53:58.672Z,20.97
2017-10-14T03:56:26.248Z,20.10
2017-10-14T03:58:54.708Z,20.80
2017-10-14T04:01:22.287Z,21.47
2017-10-14T04:03:50.627Z,18.80
2017-10-14T04:06:18.220Z,20.70
2017-10-14T04:08:46.897Z,22.27
2017-10-14T04:11:14.470Z,21.63
2017-10-14T04:13:43.756Z,21.47
2017-10-14T04:16:11.320Z,23.43
2017-10-14T04:18:38.912Z,22.10
2017-10-14T04:21:06.544Z,21.90
2017-10-14T04:23:34.144Z,23.17
2017-10-14T04:26:01.723Z,22.60
2017-10-14T04:28:29.428Z,22.50
2017-10-14T04:30:57.050Z,21.60
2017-10-14T04:33:24.632Z,20.80
2017-10-14T04:35:52.240Z,23.35
2017-10-14T04:38:19.837Z,22.13
2017-10-14T04:40:47.412Z,21.70
2017-10-14T04:43:15.009Z,23.27
2017-10-14T04:45:43.784Z,23.43
2017-10-14T04:48:11.385Z,23.07
2017-10-14T04:50:39.007Z,21.97
2017-10-14T04:53:06.608Z,23.97
2017-10-14T04:55:34.180Z,23.37
2017-10-14T04:58:01.776Z,22.92
2017-10-14T05:00:29.357Z,24.60
2017-10-14T05:02:57.716Z,23.75
2017-10-14T05:05:25.283Z,21.47
2017-10-14T05:07:52.903Z,27.50
2017-10-14T05:10:20.476Z,34.80
2017-10-14T05:12:48.077Z,31.83
2017-10-14T05:15:15.672Z,23.90
2017-10-14T05:17:44.833Z,24.85
2017-10-14T05:20:12.463Z,24.33
2017-10-14T05:22:40.061Z,22.43
2017-10-14T05:25:08.414Z,23.67
2017-10-14T05:27:36.033Z,24.07
2017-10-14T05:30:03.604Z,22.70
2017-10-14T05:32:31.216Z,21.53
2017-10-14T05:34:58.792Z,23.00
2017-10-14T05:37:27.156Z,24.17
2017-10-14T05:39:54.825Z,24.30
2017-10-14T05:42:22.423Z,24.47
2017-10-14T05:44:49.992Z,26.92
2017-10-14T05:47:17.588Z,29.27
2017-10-14T05:49:45.729Z,32.60
2017-10-14T05:52:13.339Z,39.00
2017-10-14T05:54:43.344Z,45.63
2017-10-14T05:57:10.943Z,42.40
2017-10-14T05:59:39.280Z,48.93
2017-10-14T06:02:06.960Z,40.27
2017-10-14T06:04:34.528Z,39.73
2017-10-14T06:07:02.904Z,43.03
2017-10-14T06:09:30.483Z,39.17
2017-10-14T06:11:58.847Z,22.62
2017-10-14T06:14:26.436Z,27.20
2017-10-14T06:16:54.013Z,22.52
2017-10-14T06:19:21.612Z,21.23
2017-10-14T06:21:49.185Z,24.45
2017-10-14T06:24:16.789Z,31.63
2017-10-14T06:26:46.760Z,41.95
2017-10-14T06:29:14.365Z,39.17
2017-10-14T06:31:41.937Z,30.10
2017-10-14T06:34:09.536Z,30.57
2017-10-14T06:36:38.621Z,33.90
2017-10-14T06:39:06.213Z,22.20
2017-10-14T06:41:34.584Z,17.90
2017-10-14T06:44:03.709Z,17.12
2017-10-14T06:46:31.344Z,17.50
2017-10-14T06:48:58.917Z,14.15
2017-10-14T06:51:27.297Z,15.40
2017-10-14T06:53:55.664Z,15.35
2017-10-14T06:56:23.472Z,15.20
2017-10-14T06:58:51.036Z,14.07
2017-10-14T07:01:18.623Z,14.67
2017-10-14T07:03:46.192Z,14.20
2017-10-14T07:06:13.792Z,14.10
2017-10-14T07:08:43.048Z,14.37
2017-10-14T07:11:10.678Z,15.13
2017-10-14T07:13:38.248Z,13.40
2017-10-14T07:16:05.840Z,13.67
2017-10-14T07:18:33.517Z,14.77
2017-10-14T07:21:01.116Z,13.23
2017-10-14T07:23:28.683Z,13.70
2017-10-14T07:25:56.505Z,13.50
2017-10-14T07:28:24.226Z,14.03
2017-10-14T07:30:51.797Z,11.38
2017-10-14T07:33:19.497Z,11.90
2017-10-14T07:35:47.845Z,12.30
2017-10-14T07:38:15.449Z,12.43
2017-10-14T07:40:43.888Z,12.67
2017-10-14T07:43:11.480Z,13.60
2017-10-14T07:45:39.050Z,12.97
2017-10-14T07:48:07.533Z,12.90
2017-10-14T07:50:35.900Z,11.33
2017-10-14T07:53:03.473Z,11.80
2017-10-14T07:55:31.835Z,11.23
2017-10-14T07:57:59.408Z,11.05
2017-10-14T08:00:27.875Z,10.07
2017-10-14T08:02:55.448Z,12.25
2017-10-14T08:05:23.825Z,9.57
2017-10-14T08:07:52.207Z,12.65
2017-10-14T08:10:20.575Z,11.97
2017-10-14T08:12:48.148Z,10.90
2017-10-14T08:15:16.503Z,9.20
2017-10-14T08:17:46.697Z,10.63
2017-10-14T08:20:14.296Z,12.00
2017-10-14T08:22:42.021Z,9.57
2017-10-14T08:25:09.728Z,10.37
2017-10-14T08:27:37.388Z,8.27
2017-10-14T08:30:05.002Z,10.10
2017-10-14T08:32:32.604Z,12.90
2017-10-14T08:35:00.172Z,14.23
2017-10-14T08:37:27.764Z,11.40
2017-10-14T08:39:55.335Z,14.15
2017-10-14T08:42:22.956Z,11.23
2017-10-14T08:44:50.564Z,12.17
2017-10-14T08:47:18.177Z,12.77
2017-10-14T08:49:46.060Z,14.50
2017-10-14T08:52:14.424Z,13.43
2017-10-14T08:54:42.000Z,17.10
2017-10-14T08:57:10.362Z,14.60
2017-10-14T08:59:37.968Z,14.80
2017-10-14T09:02:05.536Z,13.10
2017-10-14T09:04:33.132Z,13.70
2017-10-14T09:07:00.705Z,11.07
2017-10-14T09:09:29.904Z,10.50
2017-10-14T09:11:59.100Z,9.80
2017-10-14T09:14:26.691Z,11.83
2017-10-14T09:16:55.024Z,10.05
2017-10-14T09:19:22.616Z,9.83
2017-10-14T09:21:50.960Z,8.68
2017-10-14T09:24:18.552Z,9.03
2017-10-14T09:26:46.884Z,9.70
2017-10-14T09:29:14.585Z,8.90
2017-10-14T09:31:42.159Z,10.37
2017-10-14T09:34:10.488Z,8.63
2017-10-14T09:36:38.080Z,7.27
2017-10-14T09:39:06.440Z,7.25
2017-10-14T09:41:34.044Z,7.20
2017-10-14T09:44:02.916Z,7.45
2017-10-14T09:46:30.484Z,6.60
2017-10-14T09:48:58.053Z,7.40
2017-10-14T09:51:26.430Z,8.50
2017-10-14T09:53:54.763Z,9.30
2017-10-14T09:56:22.357Z,7.53
2017-10-14T09:58:49.928Z,8.20
2017-10-14T10:01:17.584Z,7.80
2017-10-14T10:03:47.576Z,7.83
2017-10-14T10:06:15.164Z,7.00
2017-10-14T10:08:42.733Z,10.43
2017-10-14T10:11:11.302Z,5.40
2017-10-14T10:13:38.869Z,5.43
2017-10-14T10:16:06.528Z,4.35
2017-10-14T10:18:34.115Z,3.80
2017-10-14T10:21:02.444Z,4.37
2017-10-14T10:23:30.028Z,4.90
2017-10-14T10:25:57.614Z,4.50
2017-10-14T10:28:26.357Z,4.70
2017-10-14T10:30:53.936Z,4.50
2017-10-14T10:33:21.598Z,4.80
2017-10-14T10:35:49.265Z,4.60
2017-10-14T10:38:16.839Z,3.27
2017-10-14T10:40:46.219Z,3.03
2017-10-14T10:43:13.788Z,2.90
2017-10-14T10:45:41.371Z,2.43
2017-10-14T10:48:09.737Z,2.90
2017-10-14T10:50:38.097Z,3.23
2017-10-14T10:53:05.953Z,2.97
2017-10-14T10:55:33.541Z,3.70
2017-10-14T10:58:01.887Z,4.37
2017-10-14T11:00:29.576Z,3.13
2017-10-14T11:02:58.680Z,3.28
2017-10-14T11:05:26.244Z,3.80
2017-10-14T11:07:54.601Z,3.80
2017-10-14T11:10:22.372Z,2.90
2017-10-14T11:12:49.931Z,2.73
2017-10-14T11:15:17.491Z,3.17
2017-10-14T11:17:46.000Z,3.00
2017-10-14T11:20:14.361Z,2.90
2017-10-14T11:22:42.021Z,3.17
2017-10-14T11:25:09.613Z,3.20
2017-10-14T11:27:37.960Z,3.10
2017-10-14T11:30:05.625Z,3.30
2017-10-14T11:32:34.696Z,4.40
2017-10-14T11:35:02.484Z,3.80
2017-10-14T11:37:30.148Z,3.30
2017-10-14T11:39:57.720Z,3.07
2017-10-14T11:42:26.073Z,3.33
2017-10-14T11:44:53.641Z,2.73
2017-10-14T11:47:21.229Z,3.13
2017-10-14T11:49:49.575Z,3.00
2017-10-14T11:52:17.252Z,3.10
2017-10-14T11:54:44.816Z,3.50
2017-10-14T11:57:12.472Z,3.90
2017-10-14T11:59:40.032Z,3.03
2017-10-14T12:02:07.600Z,2.23
2017-10-14T12:04:35.184Z,2.30
2017-10-14T12:07:02.753Z,2.55
2017-10-14T12:09:30.339Z,2.60
2017-10-14T12:11:57.901Z,2.87
2017-10-14T12:14:25.484Z,2.63
2017-10-14T12:16:53.040Z,2.40
2017-10-14T12:19:20.924Z,2.50
2017-10-14T12:21:49.331Z,2.72
2017-10-14T12:24:17.689Z,2.50
2017-10-14T12:26:46.196Z,2.57
2017-10-14T12:29:14.521Z,2.53
2017-10-14T12:31:42.512Z,2.60
2017-10-14T12:34:10.077Z,2.40
2017-10-14T12:36:37.740Z,2.10
2017-10-14T12:39:05.339Z,2.30
2017-10-14T12:41:32.960Z,1.93
2017-10-14T12:44:02.064Z,2.40
2017-10-14T12:46:29.632Z,2.60
2017-10-14T12:48:58.004Z,2.07
2017-10-14T12:51:26.372Z,2.03
2017-10-14T12:53:53.945Z,2.50
2017-10-14T12:56:21.597Z,2.00
2017-10-14T12:58:49.259Z,1.80
2017-10-14T13:01:16.821Z,1.97
2017-10-14T13:03:44.484Z,2.37
2017-10-14T13:06:12.053Z,2.20
2017-10-14T13:08:40.712Z,1.90
2017-10-14T13:11:08.276Z,2.40
2017-10-14T13:13:35.980Z,1.87
2017-10-14T13:16:04.313Z,2.05
2017-10-14T13:18:31.880Z,1.97
2017-10-14T13:20:59.472Z,2.10
2017-10-14T13:23:27.798Z,2.23
2017-10-14T13:25:55.561Z,1.83
2017-10-14T13:28:23.133Z,2.03
2017-10-14T13:30:50.700Z,1.70
2017-10-14T13:33:18.383Z,1.90
2017-10-14T13:35:47.788Z,1.70
2017-10-14T13:38:15.552Z,2.10
2017-10-14T13:40:43.891Z,2.00
2017-10-14T13:43:11.456Z,2.70
2017-10-14T13:45:39.052Z,2.10
2017-10-14T13:48:06.712Z,1.83
2017-10-14T13:50:34.308Z,1.80
2017-10-14T13:53:01.936Z,1.75
2017-10-14T13:55:29.580Z,2.30
2017-10-14T13:57:57.141Z,2.50
2017-10-14T14:00:24.722Z,2.43
2017-10-14T14:02:52.287Z,2.12
2017-10-14T14:05:19.872Z,1.70
2017-10-14T14:07:48.852Z,1.85
2017-10-14T14:10:17.629Z,2.10
2017-10-14T14:12:46.116Z,2.70
2017-10-14T14:15:13.767Z,2.70
2017-10-14T14:17:41.427Z,2.60
2017-10-14T14:20:10.496Z,1.70
2017-10-14T14:22:38.120Z,1.90
2017-10-14T14:25:06.454Z,2.20
2017-10-14T14:27:34.021Z,2.00
2017-10-14T14:30:02.407Z,2.55
2017-10-14T14:32:29.968Z,2.10
2017-10-14T14:34:59.164Z,2.20
2017-10-14T14:37:26.828Z,2.20
2017-10-14T14:39:54.488Z,2.30
2017-10-14T14:42:22.872Z,2.63
2017-10-14T14:44:50.480Z,2.43
2017-10-14T14:47:18.100Z,2.30
2017-10-14T14:49:47.095Z,2.08
2017-10-14T14:52:14.748Z,2.40
2017-10-14T14:54:42.412Z,2.30
2017-10-14T14:57:10.085Z,2.47
2017-10-14T14:59:37.673Z,2.10
2017-10-14T15:02:05.235Z,2.10
2017-10-14T15:04:32.960Z,2.10
2017-10-14T15:07:00.523Z,2.30
2017-10-14T15:09:28.092Z,2.07
2017-10-14T15:11:55.848Z,1.92
2017-10-14T15:14:23.412Z,2.70
2017-10-14T15:16:51.073Z,2.05
2017-10-14T15:19:18.635Z,2.67
2017-10-14T15:21:48.648Z,2.20
2017-10-14T15:24:16.209Z,2.57
2017-10-14T15:26:43.872Z,2.25
2017-10-14T15:29:11.440Z,2.50
2017-10-14T15:31:39.297Z,2.70
2017-10-14T15:34:07.509Z,2.47
2017-10-14T15:36:35.076Z,2.57
2017-10-14T15:39:02.664Z,2.57
2017-10-14T15:41:30.259Z,2.63
2017-10-14T15:43:57.840Z,2.60
2017-10-14T15:46:26.173Z,2.40
2017-10-14T15:48:53.759Z,2.17
2017-10-14T15:51:21.320Z,2.83
2017-10-14T15:53:48.996Z,3.27
2017-10-14T15:56:17.325Z,2.47
2017-10-14T15:58:45.939Z,2.50
2017-10-14T16:01:13.609Z,2.80
2017-10-14T16:03:41.196Z,2.83
2017-10-14T16:06:09.539Z,2.80
2017-10-14T16:08:37.921Z,2.70
2017-10-14T16:11:06.194Z,2.65
2017-10-14T16:13:33.865Z,2.93
2017-10-14T16:16:01.535Z,2.92
2017-10-14T16:18:29.510Z,3.33
2017-10-14T16:20:57.856Z,3.65
2017-10-14T16:23:25.420Z,3.10
2017-10-14T16:25:53.109Z,3.73
2017-10-14T16:28:21.448Z,3.70
2017-10-14T16:30:49.051Z,3.50
2017-10-14T16:33:17.388Z,3.80
2017-10-14T16:35:45.899Z,4.30
2017-10-14T16:38:13.467Z,3.80
2017-10-14T16:40:41.193Z,4.27
2017-10-14T16:43:08.765Z,3.90
2017-10-14T16:45:36.352Z,3.83
2017-10-14T16:48:05.419Z,4.67
2017-10-14T16:50:33.005Z,4.63
2017-10-14T16:53:00.577Z,4.63
2017-10-14T16:55:28.932Z,4.83
2017-10-14T16:57:56.501Z,5.85
2017-10-14T17:00:24.865Z,5.30
2017-10-14T17:02:52.458Z,5.70
2017-10-14T17:05:20.824Z,5.23
2017-10-14T17:07:48.904Z,5.03
2017-10-14T17:10:16.496Z,5.07
2017-10-14T17:12:44.063Z,5.30
2017-10-14T17:15:11.800Z,6.13
2017-10-14T17:17:40.142Z,5.83
2017-10-14T17:20:07.859Z,7.10
2017-10-14T17:22:35.452Z,6.57
2017-10-14T17:25:03.031Z,7.10
2017-10-14T17:27:30.703Z,7.20
2017-10-14T17:29:58.268Z,7.22
2017-10-14T17:32:27.423Z,6.87
2017-10-14T17:34:54.986Z,7.27
2017-10-14T17:37:22.892Z,7.97
2017-10-14T17:39:50.556Z,7.13
2017-10-14T17:42:18.119Z,7.13
2017-10-14T17:44:47.312Z,7.97
2017-10-14T17:47:14.876Z,7.93
2017-10-14T17:49:42.457Z,7.07
2017-10-14T17:52:10.824Z,8.27
2017-10-14T17:54:39.956Z,8.00
2017-10-14T17:57:07.515Z,6.70
2017-10-14T17:59:35.076Z,6.00
2017-10-14T18:02:02.697Z,5.43
2017-10-14T18:04:30.532Z,5.57
2017-10-14T18:06:58.419Z,5.70
2017-10-14T18:09:26.092Z,4.47
2017-10-14T18:11:53.764Z,5.00
2017-10-14T18:14:21.520Z,5.07
2017-10-14T18:16:49.094Z,4.87
2017-10-14T18:19:17.437Z,6.37
2017-10-14T18:21:45.956Z,6.77
2017-10-14T18:24:14.295Z,7.20
2017-10-14T18:26:42.827Z,6.33
2017-10-14T18:29:10.411Z,6.45
2017-10-14T18:31:38.041Z,5.57
2017-10-14T18:34:06.413Z,7.15
2017-10-14T18:36:33.980Z,8.80
2017-10-14T18:39:01.568Z,9.17
2017-10-14T18:41:29.131Z,13.03
2017-10-14T18:43:56.760Z,13.10
2017-10-14T18:46:25.135Z,10.33
2017-10-14T18:48:53.506Z,10.63
2017-10-14T18:51:22.594Z,8.93
2017-10-14T18:53:50.484Z,10.60
2017-10-14T18:56:18.063Z,9.57
2017-10-14T18:58:47.853Z,10.57
2017-10-14T19:01:15.458Z,11.17
2017-10-14T19:03:43.082Z,10.43
2017-10-14T19:06:10.798Z,10.87
2017-10-14T19:08:38.410Z,11.10
2017-10-14T19:11:06.785Z,9.60
2017-10-14T19:13:34.449Z,12.20
2017-10-14T19:16:02.934Z,9.90
2017-10-14T19:18:31.282Z,9.53
2017-10-14T19:20:58.973Z,10.90
2017-10-14T19:23:27.317Z,10.30
2017-10-14T19:25:54.930Z,10.40
2017-10-14T19:28:23.284Z,9.90
2017-10-14T19:30:51.883Z,10.37
2017-10-14T19:33:20.231Z,9.80
2017-10-14T19:35:48.861Z,10.03
2017-10-14T19:38:17.332Z,9.90
2017-10-14T19:40:44.982Z,10.70
2017-10-14T19:43:12.591Z,10.30
2017-10-14T19:45:40.185Z,10.90
2017-10-14T19:48:07.793Z,10.37
2017-10-14T19:50:35.369Z,8.57
2017-10-14T19:53:02.960Z,8.47
2017-10-14T19:55:30.546Z,9.60
2017-10-14T19:57:58.149Z,10.27
2017-10-14T20:00:26.625Z,9.10
2017-10-14T20:02:54.196Z,9.70
2017-10-14T20:05:21.789Z,9.57
2017-10-14T20:07:49.368Z,9.23
2017-10-14T20:10:18.465Z,8.47
2017-10-14T20:12:47.857Z,9.27
2017-10-14T20:15:15.449Z,10.47
2017-10-14T20:17:43.775Z,9.75
2017-10-14T20:20:11.474Z,9.40
2017-10-14T20:22:39.039Z,9.53
2017-10-14T20:25:06.628Z,8.80
2017-10-14T20:27:34.257Z,8.50
2017-10-14T20:30:01.869Z,7.37
2017-10-14T20:32:29.470Z,7.10
2017-10-14T20:34:57.079Z,6.30
2017-10-14T20:37:24.659Z,6.80
2017-10-14T20:39:52.262Z,6.93
2017-10-14T20:42:19.823Z,7.83
2017-10-14T20:44:48.712Z,8.67
2017-10-14T20:47:16.272Z,8.97
2017-10-14T20:49:43.864Z,9.20
2017-10-14T20:52:12.216Z,8.63
2017-10-14T20:54:39.784Z,9.87
2017-10-14T20:57:08.257Z,9.90
2017-10-14T20:59:35.837Z,9.93
2017-10-14T21:02:04.193Z,9.07
2017-10-14T21:04:31.764Z,9.83
2017-10-14T21:06:59.681Z,7.75
2017-10-14T21:09:27.260Z,9.13
2017-10-14T21:11:54.846Z,7.27
2017-10-14T21:14:22.522Z,7.60
2017-10-14T21:16:50.870Z,7.63
2017-10-14T21:19:18.479Z,7.50
2017-10-14T21:21:47.837Z,6.60
2017-10-14T21:24:15.442Z,7.10
2017-10-14T21:26:43.021Z,8.43
2017-10-14T21:29:10.621Z,6.90
2017-10-14T21:31:38.227Z,7.43
2017-10-14T21:34:05.829Z,6.97
2017-10-14T21:36:33.407Z,7.10
2017-10-14T21:39:02.531Z,6.70
2017-10-14T21:41:30.873Z,7.10
2017-10-14T21:43:58.477Z,6.83
2017-10-14T21:46:26.816Z,7.57
2017-10-14T21:48:54.496Z,7.25
2017-10-14T21:51:22.162Z,7.27
2017-10-14T21:53:49.771Z,7.73
2017-10-14T21:56:17.388Z,7.00
2017-10-14T21:58:45.896Z,6.57
2017-10-14T22:01:13.464Z,7.90
2017-10-14T22:03:41.079Z,6.97
2017-10-14T22:06:08.748Z,7.07
2017-10-14T22:08:36.321Z,7.40
2017-10-14T22:11:04.691Z,7.00
2017-10-14T22:13:33.063Z,6.97
2017-10-14T22:16:00.684Z,7.40
2017-10-14T22:18:28.248Z,7.40
2017-10-14T22:20:55.850Z,7.80
2017-10-14T22:23:23.448Z,7.47
2017-10-14T22:25:51.012Z,6.70
2017-10-14T22:28:18.633Z,7.40
2017-10-14T22:30:47.368Z,7.13
2017-10-14T22:33:14.996Z,7.23
2017-10-14T22:35:43.328Z,6.40
2017-10-14T22:38:10.897Z,7.07
2017-10-14T22:40:38.586Z,7.30
2017-10-14T22:43:06.147Z,7.63
2017-10-14T22:45:34.516Z,7.40
2017-10-14T22:48:03.588Z,8.30
2017-10-14T22:50:31.177Z,7.07
2017-10-14T22:53:00.268Z,7.67
2017-10-14T22:55:28.172Z,7.60
2017-10-14T22:57:55.753Z,6.32
2017-10-14T23:00:23.325Z,7.50
2017-10-14T23:02:50.916Z,7.85
2017-10-14T23:05:18.704Z,7.30
2017-10-14T23:07:47.681Z,7.07
2017-10-14T23:10:15.246Z,7.07
2017-10-14T23:12:42.833Z,7.33
2017-10-14T23:15:11.164Z,7.93
2017-10-14T23:17:38.844Z,8.57
2017-10-14T23:20:06.412Z,7.53
2017-10-14T23:22:34.000Z,8.63
2017-10-14T23:25:02.349Z,8.20
2017-10-14T23:27:30.111Z,9.32
2017-10-14T23:29:57.772Z,8.90
2017-10-14T23:32:25.441Z,9.63
2017-10-14T23:34:53.036Z,10.00
2017-10-14T23:37:20.664Z,10.50
2017-10-14T23:39:49.140Z,10.18
2017-10-14T23:42:16.718Z,9.97
2017-10-14T23:44:45.986Z,13.23
2017-10-14T23:47:13.772Z,12.20
2017-10-14T23:49:41.341Z,10.97
2017-10-14T23:52:09.001Z,12.63
2017-10-14T23:54:36.588Z,12.53
2017-10-14T23:57:04.161Z,12.30
2017-10-14T23:59:31.867Z,10.50
